Albany International Airport

Airport
ICAO code: 
KALB
Summary
ICAO Region: 
NAM
Territory: 
Location: 
Albany, New York,
Coordinates: 
Aerial View: 
42° 44' 42.997" N, 73° 48' 34.398" W
Airport WX: 
Cumulonimbus
Metar
Observation
KALB 271951Z 27015G24KT 10SM SCT047 01/M09 A2984 RMK AO2 PK WND 27026/1909 SLP108 T00061089
Station
Albany, Albany International Airport
Date/Time
2021-11-27 19:51:00
Wind direction
270°
Wind speed
15 kts
Lowest cloud amount
scattered clouds
Temperature
0.6°C
Dew point
-8.9°C
Humidity
48%
Weather condition
n/a

Description

Albany International Airport is a public use airport located 11 km northwest of the central business district of Albany, in Albany County, New York.

Climatology

Humid Continental climate (Köppen climate classification Dfb) - Variable weather patterns and a large seasonal temperature variance. Summers are often warm and humid with frequent thunderstorms and winters can be very cold with frequent snowfall and persistent snow cover.

Runways

Designator Length Width Surface Rops
1/19 2195 46 ASP Yes/Yes
10/28 2195 46 ASP Yes/Yes
Airport map: 
Aerial View: 

SKYbrary Partners:

Safety knowledge contributed by: